sensor_id;sensor_type;location;lat;lon;timestamp;P1;durP1;ratioP1;P2;durP2;ratioP2
11431;SDS011;5772;50.940;6.782;2023-08-01T00:01:02;29.90;;;28.53;;
11431;SDS011;5772;50.940;6.782;2023-08-01T00:03:28;29.20;;;28.00;;
11431;SDS011;5772;50.940;6.782;2023-08-01T00:05:53;27.93;;;26.83;;
11431;SDS011;5772;50.940;6.782;2023-08-01T00:08:20;29.27;;;28.17;;
11431;SDS011;5772;50.940;6.782;2023-08-01T00:10:46;29.33;;;28.20;;
11431;SDS011;5772;50.940;6.782;2023-08-01T00:13:11;29.20;;;28.10;;
11431;SDS011;5772;50.940;6.782;2023-08-01T00:15:36;29.13;;;28.03;;
11431;SDS011;5772;50.940;6.782;2023-08-01T00:18:02;30.47;;;29.27;;
11431;SDS011;5772;50.940;6.782;2023-08-01T00:20:27;34.43;;;32.93;;
11431;SDS011;5772;50.940;6.782;2023-08-01T00:22:52;33.00;;;31.70;;
11431;SDS011;5772;50.940;6.782;2023-08-01T00:25:19;31.00;;;29.80;;
11431;SDS011;5772;50.940;6.782;2023-08-01T00:27:44;34.37;;;33.03;;
11431;SDS011;5772;50.940;6.782;2023-08-01T00:30:10;35.47;;;34.07;;
11431;SDS011;5772;50.940;6.782;2023-08-01T00:32:36;35.87;;;34.47;;
11431;SDS011;5772;50.940;6.782;2023-08-01T00:35:01;28.27;;;27.07;;
11431;SDS011;5772;50.940;6.782;2023-08-01T00:37:27;28.37;;;27.27;;
11431;SDS011;5772;50.940;6.782;2023-08-01T00:39:52;29.73;;;28.43;;
11431;SDS011;5772;50.940;6.782;2023-08-01T00:42:19;30.40;;;29.20;;
11431;SDS011;5772;50.940;6.782;2023-08-01T00:44:44;29.63;;;28.43;;
11431;SDS011;5772;50.940;6.782;2023-08-01T00:47:10;34.40;;;33.10;;
11431;SDS011;5772;50.940;6.782;2023-08-01T00:49:35;33.03;;;31.73;;
11431;SDS011;5772;50.940;6.782;2023-08-01T00:52:00;33.33;;;32.03;;
11431;SDS011;5772;50.940;6.782;2023-08-01T00:54:26;33.43;;;31.83;;
11431;SDS011;5772;50.940;6.782;2023-08-01T00:56:52;29.90;;;28.60;;
11431;SDS011;5772;50.940;6.782;2023-08-01T00:59:21;30.43;;;29.23;;
11431;SDS011;5772;50.940;6.782;2023-08-01T01:01:47;29.93;;;28.73;;
11431;SDS011;5772;50.940;6.782;2023-08-01T01:04:12;30.30;;;29.10;;
11431;SDS011;5772;50.940;6.782;2023-08-01T01:06:38;30.60;;;29.40;;
11431;SDS011;5772;50.940;6.782;2023-08-01T01:09:13;29.43;;;28.33;;
11431;SDS011;5772;50.940;6.782;2023-08-01T01:11:39;32.23;;;31.03;;
11431;SDS011;5772;50.940;6.782;2023-08-01T01:14:05;28.87;;;27.77;;
11431;SDS011;5772;50.940;6.782;2023-08-01T01:16:31;29.60;;;28.50;;
11431;SDS011;5772;50.940;6.782;2023-08-01T01:18:57;30.43;;;29.13;;
11431;SDS011;5772;50.940;6.782;2023-08-01T01:21:23;31.63;;;30.33;;
11431;SDS011;5772;50.940;6.782;2023-08-01T01:23:49;29.20;;;28.00;;
11431;SDS011;5772;50.940;6.782;2023-08-01T01:26:15;30.30;;;29.10;;
11431;SDS011;5772;50.940;6.782;2023-08-01T01:28:41;30.43;;;29.23;;
11431;SDS011;5772;50.940;6.782;2023-08-01T01:31:06;30.50;;;29.30;;
11431;SDS011;5772;50.940;6.782;2023-08-01T01:33:32;29.50;;;28.40;;
11431;SDS011;5772;50.940;6.782;2023-08-01T01:35:59;30.60;;;29.40;;
11431;SDS011;5772;50.940;6.782;2023-08-01T01:38:26;29.73;;;28.43;;
11431;SDS011;5772;50.940;6.782;2023-08-01T01:40:52;29.77;;;28.63;;
11431;SDS011;5772;50.940;6.782;2023-08-01T01:43:17;28.27;;;27.17;;
11431;SDS011;5772;50.940;6.782;2023-08-01T01:45:42;30.83;;;29.63;;
11431;SDS011;5772;50.940;6.782;2023-08-01T01:48:08;33.43;;;32.13;;
11431;SDS011;5772;50.940;6.782;2023-08-01T01:50:33;36.97;;;35.47;;
11431;SDS011;5772;50.940;6.782;2023-08-01T01:52:58;34.07;;;32.70;;
11431;SDS011;5772;50.940;6.782;2023-08-01T01:55:25;30.13;;;28.93;;
11431;SDS011;5772;50.940;6.782;2023-08-01T01:57:50;33.90;;;32.50;;
11431;SDS011;5772;50.940;6.782;2023-08-01T02:00:16;33.07;;;31.77;;
11431;SDS011;5772;50.940;6.782;2023-08-01T02:02:41;33.80;;;32.50;;
11431;SDS011;5772;50.940;6.782;2023-08-01T02:05:07;37.87;;;36.37;;
11431;SDS011;5772;50.940;6.782;2023-08-01T02:07:32;33.47;;;32.17;;
11431;SDS011;5772;50.940;6.782;2023-08-01T02:09:57;34.90;;;33.50;;
11431;SDS011;5772;50.940;6.782;2023-08-01T02:12:24;35.37;;;33.90;;
11431;SDS011;5772;50.940;6.782;2023-08-01T02:14:50;37.80;;;36.20;;
11431;SDS011;5772;50.940;6.782;2023-08-01T02:17:15;38.10;;;36.50;;
11431;SDS011;5772;50.940;6.782;2023-08-01T02:19:40;38.40;;;36.90;;
11431;SDS011;5772;50.940;6.782;2023-08-01T02:22:06;39.83;;;38.23;;
11431;SDS011;5772;50.940;6.782;2023-08-01T02:24:31;38.03;;;36.53;;
11431;SDS011;5772;50.940;6.782;2023-08-01T02:26:56;39.77;;;38.20;;
11431;SDS011;5772;50.940;6.782;2023-08-01T02:29:23;36.10;;;34.63;;
11431;SDS011;5772;50.940;6.782;2023-08-01T02:31:48;36.87;;;35.47;;
11431;SDS011;5772;50.940;6.782;2023-08-01T02:34:14;40.30;;;38.70;;
11431;SDS011;5772;50.940;6.782;2023-08-01T02:36:39;36.10;;;34.70;;
11431;SDS011;5772;50.940;6.782;2023-08-01T02:39:04;42.00;;;40.33;;
11431;SDS011;5772;50.940;6.782;2023-08-01T02:41:30;38.80;;;37.20;;
11431;SDS011;5772;50.940;6.782;2023-08-01T02:43:55;38.47;;;36.93;;
11431;SDS011;5772;50.940;6.782;2023-08-01T02:46:22;36.83;;;35.13;;
11431;SDS011;5772;50.940;6.782;2023-08-01T02:48:47;37.37;;;35.87;;
11431;SDS011;5772;50.940;6.782;2023-08-01T02:51:13;37.97;;;36.47;;
11431;SDS011;5772;50.940;6.782;2023-08-01T02:53:38;34.17;;;32.67;;
11431;SDS011;5772;50.940;6.782;2023-08-01T02:56:04;39.97;;;38.37;;
11431;SDS011;5772;50.940;6.782;2023-08-01T02:58:29;36.50;;;35.07;;
11431;SDS011;5772;50.940;6.782;2023-08-01T03:00:54;32.87;;;31.57;;
11431;SDS011;5772;50.940;6.782;2023-08-01T03:03:21;39.20;;;37.67;;
11431;SDS011;5772;50.940;6.782;2023-08-01T03:05:46;35.57;;;34.13;;
11431;SDS011;5772;50.940;6.782;2023-08-01T03:08:12;50.23;;;48.23;;
11431;SDS011;5772;50.940;6.782;2023-08-01T03:10:37;50.33;;;48.30;;
11431;SDS011;5772;50.940;6.782;2023-08-01T03:13:02;37.93;;;36.43;;
11431;SDS011;5772;50.940;6.782;2023-08-01T03:15:28;38.73;;;37.13;;
11431;SDS011;5772;50.940;6.782;2023-08-01T03:17:53;35.03;;;33.63;;
11431;SDS011;5772;50.940;6.782;2023-08-01T03:20:20;38.30;;;36.70;;
11431;SDS011;5772;50.940;6.782;2023-08-01T03:22:45;38.27;;;36.60;;
11431;SDS011;5772;50.940;6.782;2023-08-01T03:25:11;35.60;;;34.17;;
11431;SDS011;5772;50.940;6.782;2023-08-01T03:27:36;53.23;;;51.03;;
11431;SDS011;5772;50.940;6.782;2023-08-01T03:30:02;42.10;;;40.30;;
11431;SDS011;5772;50.940;6.782;2023-08-01T03:32:28;41.80;;;40.07;;
11431;SDS011;5772;50.940;6.782;2023-08-01T03:34:53;36.57;;;34.77;;
11431;SDS011;5772;50.940;6.782;2023-08-01T03:37:20;39.80;;;38.07;;
11431;SDS011;5772;50.940;6.782;2023-08-01T03:39:45;39.90;;;38.20;;
11431;SDS011;5772;50.940;6.782;2023-08-01T03:42:10;39.60;;;37.50;;
11431;SDS011;5772;50.940;6.782;2023-08-01T03:44:36;40.67;;;38.87;;
11431;SDS011;5772;50.940;6.782;2023-08-01T03:47:01;39.93;;;38.07;;
11431;SDS011;5772;50.940;6.782;2023-08-01T03:49:27;38.33;;;36.63;;
11431;SDS011;5772;50.940;6.782;2023-08-01T03:51:52;41.87;;;39.97;;
11431;SDS011;5772;50.940;6.782;2023-08-01T03:54:19;38.87;;;36.97;;
11431;SDS011;5772;50.940;6.782;2023-08-01T03:56:44;38.50;;;36.60;;
11431;SDS011;5772;50.940;6.782;2023-08-01T03:59:10;37.53;;;35.63;;
11431;SDS011;5772;50.940;6.782;2023-08-01T04:01:35;39.10;;;37.07;;
11431;SDS011;5772;50.940;6.782;2023-08-01T04:04:01;37.07;;;35.00;;
11431;SDS011;5772;50.940;6.782;2023-08-01T04:06:26;39.80;;;37.67;;
11431;SDS011;5772;50.940;6.782;2023-08-01T04:08:51;38.33;;;36.43;;
11431;SDS011;5772;50.940;6.782;2023-08-01T04:11:18;37.67;;;35.77;;
11431;SDS011;5772;50.940;6.782;2023-08-01T04:13:44;38.50;;;36.77;;
11431;SDS011;5772;50.940;6.782;2023-08-01T04:16:09;39.97;;;37.63;;
11431;SDS011;5772;50.940;6.782;2023-08-01T04:18:34;38.73;;;36.77;;
11431;SDS011;5772;50.940;6.782;2023-08-01T04:21:00;37.57;;;35.83;;
11431;SDS011;5772;50.940;6.782;2023-08-01T04:23:25;40.33;;;38.27;;
11431;SDS011;5772;50.940;6.782;2023-08-01T04:25:50;37.43;;;35.63;;
11431;SDS011;5772;50.940;6.782;2023-08-01T04:28:17;34.00;;;32.40;;
11431;SDS011;5772;50.940;6.782;2023-08-01T04:30:48;40.50;;;38.57;;
11431;SDS011;5772;50.940;6.782;2023-08-01T04:33:13;39.33;;;37.33;;
11431;SDS011;5772;50.940;6.782;2023-08-01T04:35:39;39.57;;;37.73;;
11431;SDS011;5772;50.940;6.782;2023-08-01T04:38:04;36.40;;;34.70;;
11431;SDS011;5772;50.940;6.782;2023-08-01T04:40:29;38.10;;;36.23;;
11431;SDS011;5772;50.940;6.782;2023-08-01T04:42:55;40.00;;;38.00;;
11431;SDS011;5772;50.940;6.782;2023-08-01T04:45:21;37.03;;;35.07;;
11431;SDS011;5772;50.940;6.782;2023-08-01T04:47:47;38.93;;;37.03;;
11431;SDS011;5772;50.940;6.782;2023-08-01T04:50:12;38.90;;;36.90;;
11431;SDS011;5772;50.940;6.782;2023-08-01T04:52:37;35.87;;;34.20;;
11431;SDS011;5772;50.940;6.782;2023-08-01T04:55:03;37.37;;;35.47;;
11431;SDS011;5772;50.940;6.782;2023-08-01T04:57:29;38.27;;;36.13;;
11431;SDS011;5772;50.940;6.782;2023-08-01T04:59:54;35.93;;;34.03;;
11431;SDS011;5772;50.940;6.782;2023-08-01T05:02:21;38.07;;;36.03;;
11431;SDS011;5772;50.940;6.782;2023-08-01T05:04:47;37.83;;;35.87;;
11431;SDS011;5772;50.940;6.782;2023-08-01T05:07:12;37.70;;;35.73;;
11431;SDS011;5772;50.940;6.782;2023-08-01T05:09:37;36.43;;;34.53;;
11431;SDS011;5772;50.940;6.782;2023-08-01T05:12:03;33.00;;;31.53;;
11431;SDS011;5772;50.940;6.782;2023-08-01T05:14:29;33.00;;;31.20;;
11431;SDS011;5772;50.940;6.782;2023-08-01T05:16:54;34.13;;;32.43;;
11431;SDS011;5772;50.940;6.782;2023-08-01T05:19:21;34.63;;;32.73;;
11431;SDS011;5772;50.940;6.782;2023-08-01T05:21:46;33.70;;;31.97;;
11431;SDS011;5772;50.940;6.782;2023-08-01T05:24:11;33.87;;;31.97;;
11431;SDS011;5772;50.940;6.782;2023-08-01T05:26:37;35.30;;;33.37;;
11431;SDS011;5772;50.940;6.782;2023-08-01T05:29:02;35.03;;;33.43;;
11431;SDS011;5772;50.940;6.782;2023-08-01T05:31:27;31.77;;;30.27;;
11431;SDS011;5772;50.940;6.782;2023-08-01T05:33:53;32.50;;;30.70;;
11431;SDS011;5772;50.940;6.782;2023-08-01T05:36:19;32.87;;;31.27;;
11431;SDS011;5772;50.940;6.782;2023-08-01T05:38:45;34.90;;;33.13;;
11431;SDS011;5772;50.940;6.782;2023-08-01T05:41:10;33.77;;;32.07;;
11431;SDS011;5772;50.940;6.782;2023-08-01T05:43:35;33.67;;;32.07;;
11431;SDS011;5772;50.940;6.782;2023-08-01T05:46:01;31.90;;;30.23;;
11431;SDS011;5772;50.940;6.782;2023-08-01T05:48:26;31.90;;;30.20;;
11431;SDS011;5772;50.940;6.782;2023-08-01T05:50:52;30.43;;;29.00;;
11431;SDS011;5772;50.940;6.782;2023-08-01T05:53:18;28.07;;;26.67;;
11431;SDS011;5772;50.940;6.782;2023-08-01T05:55:44;29.40;;;27.80;;
11431;SDS011;5772;50.940;6.782;2023-08-01T05:58:09;28.80;;;27.10;;
11431;SDS011;5772;50.940;6.782;2023-08-01T06:00:34;30.40;;;29.00;;
11431;SDS011;5772;50.940;6.782;2023-08-01T06:03:00;27.60;;;26.20;;
11431;SDS011;5772;50.940;6.782;2023-08-01T06:05:25;26.63;;;25.37;;
11431;SDS011;5772;50.940;6.782;2023-08-01T06:07:50;26.83;;;25.47;;
11431;SDS011;5772;50.940;6.782;2023-08-01T06:10:17;27.33;;;25.87;;
11431;SDS011;5772;50.940;6.782;2023-08-01T06:12:42;24.43;;;23.13;;
11431;SDS011;5772;50.940;6.782;2023-08-01T06:15:08;29.13;;;27.63;;
11431;SDS011;5772;50.940;6.782;2023-08-01T06:17:34;27.37;;;26.03;;
11431;SDS011;5772;50.940;6.782;2023-08-01T06:19:59;26.20;;;24.77;;
11431;SDS011;5772;50.940;6.782;2023-08-01T06:22:24;26.77;;;25.47;;
11431;SDS011;5772;50.940;6.782;2023-08-01T06:24:50;24.90;;;23.53;;
11431;SDS011;5772;50.940;6.782;2023-08-01T06:27:17;24.93;;;23.63;;
11431;SDS011;5772;50.940;6.782;2023-08-01T06:29:42;22.13;;;20.93;;
11431;SDS011;5772;50.940;6.782;2023-08-01T06:32:07;21.13;;;19.93;;
11431;SDS011;5772;50.940;6.782;2023-08-01T06:34:33;20.70;;;19.50;;
11431;SDS011;5772;50.940;6.782;2023-08-01T06:36:58;20.17;;;19.03;;
11431;SDS011;5772;50.940;6.782;2023-08-01T06:39:23;20.93;;;19.93;;
11431;SDS011;5772;50.940;6.782;2023-08-01T06:41:49;20.37;;;19.43;;
11431;SDS011;5772;50.940;6.782;2023-08-01T06:44:15;19.60;;;18.50;;
11431;SDS011;5772;50.940;6.782;2023-08-01T06:46:41;19.47;;;18.47;;
11431;SDS011;5772;50.940;6.782;2023-08-01T06:49:06;21.37;;;19.83;;
11431;SDS011;5772;50.940;6.782;2023-08-01T06:51:31;19.73;;;18.23;;
11431;SDS011;5772;50.940;6.782;2023-08-01T06:53:57;20.63;;;19.63;;
11431;SDS011;5772;50.940;6.782;2023-08-01T06:56:22;21.00;;;19.37;;
11431;SDS011;5772;50.940;6.782;2023-08-01T06:58:47;20.07;;;18.90;;
11431;SDS011;5772;50.940;6.782;2023-08-01T07:01:14;21.57;;;20.27;;
11431;SDS011;5772;50.940;6.782;2023-08-01T07:03:39;22.10;;;20.83;;
11431;SDS011;5772;50.940;6.782;2023-08-01T07:06:05;21.90;;;20.60;;
11431;SDS011;5772;50.940;6.782;2023-08-01T07:08:30;22.10;;;21.07;;
11431;SDS011;5772;50.940;6.782;2023-08-01T07:10:55;21.27;;;20.27;;
11431;SDS011;5772;50.940;6.782;2023-08-01T07:13:21;23.10;;;21.80;;
11431;SDS011;5772;50.940;6.782;2023-08-01T07:15:46;19.23;;;18.20;;
11431;SDS011;5772;50.940;6.782;2023-08-01T07:18:13;19.83;;;18.80;;
11431;SDS011;5772;50.940;6.782;2023-08-01T07:20:38;20.53;;;19.53;;
11431;SDS011;5772;50.940;6.782;2023-08-01T07:23:03;26.20;;;24.83;;
11431;SDS011;5772;50.940;6.782;2023-08-01T07:25:29;25.47;;;24.20;;
11431;SDS011;5772;50.940;6.782;2023-08-01T07:27:54;20.87;;;19.77;;
11431;SDS011;5772;50.940;6.782;2023-08-01T07:30:19;20.53;;;19.20;;
11431;SDS011;5772;50.940;6.782;2023-08-01T07:32:45;18.75;;;17.55;;
11431;SDS011;5772;50.940;6.782;2023-08-01T07:35:11;20.30;;;19.17;;
11431;SDS011;5772;50.940;6.782;2023-08-01T07:37:37;20.70;;;19.75;;
11431;SDS011;5772;50.940;6.782;2023-08-01T07:40:02;15.75;;;14.95;;
11431;SDS011;5772;50.940;6.782;2023-08-01T07:42:28;14.93;;;14.13;;
11431;SDS011;5772;50.940;6.782;2023-08-01T07:44:53;16.63;;;15.73;;
11431;SDS011;5772;50.940;6.782;2023-08-01T07:47:19;14.52;;;13.73;;
11431;SDS011;5772;50.940;6.782;2023-08-01T07:49:44;15.50;;;14.70;;
11431;SDS011;5772;50.940;6.782;2023-08-01T07:52:11;13.90;;;13.25;;
11431;SDS011;5772;50.940;6.782;2023-08-01T07:54:36;14.73;;;13.93;;
11431;SDS011;5772;50.940;6.782;2023-08-01T07:57:01;15.27;;;14.32;;
11431;SDS011;5772;50.940;6.782;2023-08-01T07:59:27;14.80;;;13.90;;
11431;SDS011;5772;50.940;6.782;2023-08-01T08:01:52;13.73;;;12.93;;
11431;SDS011;5772;50.940;6.782;2023-08-01T08:04:18;14.02;;;13.38;;
11431;SDS011;5772;50.940;6.782;2023-08-01T08:06:43;14.40;;;13.50;;
11431;SDS011;5772;50.940;6.782;2023-08-01T08:09:10;14.60;;;13.40;;
11431;SDS011;5772;50.940;6.782;2023-08-01T08:11:35;17.13;;;16.02;;
11431;SDS011;5772;50.940;6.782;2023-08-01T08:14:01;16.23;;;15.32;;
11431;SDS011;5772;50.940;6.782;2023-08-01T08:16:26;15.82;;;14.98;;
11431;SDS011;5772;50.940;6.782;2023-08-01T08:18:51;16.15;;;15.35;;
11431;SDS011;5772;50.940;6.782;2023-08-01T08:21:17;15.90;;;14.63;;
11431;SDS011;5772;50.940;6.782;2023-08-01T08:23:42;17.30;;;16.00;;
11431;SDS011;5772;50.940;6.782;2023-08-01T08:26:09;15.05;;;14.13;;
11431;SDS011;5772;50.940;6.782;2023-08-01T08:28:34;19.33;;;18.33;;
11431;SDS011;5772;50.940;6.782;2023-08-01T08:30:59;22.38;;;21.08;;
11431;SDS011;5772;50.940;6.782;2023-08-01T08:33:25;18.92;;;17.92;;
11431;SDS011;5772;50.940;6.782;2023-08-01T08:35:50;20.88;;;19.67;;
11431;SDS011;5772;50.940;6.782;2023-08-01T08:38:16;21.13;;;19.90;;
11431;SDS011;5772;50.940;6.782;2023-08-01T08:40:43;26.20;;;24.88;;
11431;SDS011;5772;50.940;6.782;2023-08-01T08:43:15;25.30;;;23.95;;
11431;SDS011;5772;50.940;6.782;2023-08-01T08:45:42;13.75;;;12.95;;
11431;SDS011;5772;50.940;6.782;2023-08-01T08:48:09;14.68;;;13.80;;
11431;SDS011;5772;50.940;6.782;2023-08-01T08:50:34;17.20;;;16.35;;
11431;SDS011;5772;50.940;6.782;2023-08-01T08:53:00;19.73;;;18.83;;
11431;SDS011;5772;50.940;6.782;2023-08-01T08:55:26;19.83;;;18.73;;
11431;SDS011;5772;50.940;6.782;2023-08-01T08:57:51;17.90;;;16.90;;
11431;SDS011;5772;50.940;6.782;2023-08-01T09:00:18;17.73;;;16.73;;
11431;SDS011;5772;50.940;6.782;2023-08-01T09:02:44;13.85;;;13.15;;
11431;SDS011;5772;50.940;6.782;2023-08-01T09:05:09;17.30;;;16.10;;
11431;SDS011;5772;50.940;6.782;2023-08-01T09:07:35;14.65;;;13.75;;
11431;SDS011;5772;50.940;6.782;2023-08-01T09:10:04;19.80;;;18.80;;
11431;SDS011;5772;50.940;6.782;2023-08-01T09:12:32;29.45;;;28.10;;
11431;SDS011;5772;50.940;6.782;2023-08-01T09:14:59;27.00;;;25.83;;
11431;SDS011;5772;50.940;6.782;2023-08-01T09:17:25;17.20;;;16.30;;
11431;SDS011;5772;50.940;6.782;2023-08-01T09:19:54;15.68;;;14.98;;
11431;SDS011;5772;50.940;6.782;2023-08-01T09:22:20;19.52;;;18.58;;
11431;SDS011;5772;50.940;6.782;2023-08-01T09:24:54;18.55;;;17.75;;
11431;SDS011;5772;50.940;6.782;2023-08-01T09:27:20;14.10;;;13.10;;
11431;SDS011;5772;50.940;6.782;2023-08-01T09:29:46;16.25;;;15.45;;
11431;SDS011;5772;50.940;6.782;2023-08-01T09:32:12;14.30;;;13.60;;
11431;SDS011;5772;50.940;6.782;2023-08-01T09:34:40;17.67;;;16.42;;
11431;SDS011;5772;50.940;6.782;2023-08-01T09:37:05;21.60;;;20.67;;
11431;SDS011;5772;50.940;6.782;2023-08-01T09:39:31;15.68;;;14.98;;
11431;SDS011;5772;50.940;6.782;2023-08-01T09:41:56;16.08;;;15.27;;
11431;SDS011;5772;50.940;6.782;2023-08-01T09:44:22;17.58;;;16.75;;
11431;SDS011;5772;50.940;6.782;2023-08-01T09:46:54;14.07;;;13.40;;
11431;SDS011;5772;50.940;6.782;2023-08-01T09:49:20;32.10;;;30.67;;
11431;SDS011;5772;50.940;6.782;2023-08-01T09:51:47;27.27;;;25.90;;
11431;SDS011;5772;50.940;6.782;2023-08-01T09:54:13;24.75;;;23.63;;
11431;SDS011;5772;50.940;6.782;2023-08-01T09:56:38;19.90;;;19.02;;
11431;SDS011;5772;50.940;6.782;2023-08-01T09:59:04;20.45;;;19.42;;
11431;SDS011;5772;50.940;6.782;2023-08-01T10:01:30;16.23;;;15.40;;
11431;SDS011;5772;50.940;6.782;2023-08-01T10:03:57;16.35;;;15.40;;
11431;SDS011;5772;50.940;6.782;2023-08-01T10:06:23;17.08;;;16.38;;
11431;SDS011;5772;50.940;6.782;2023-08-01T10:08:51;15.10;;;14.02;;
11431;SDS011;5772;50.940;6.782;2023-08-01T10:11:17;26.88;;;25.48;;
11431;SDS011;5772;50.940;6.782;2023-08-01T10:13:44;19.33;;;18.33;;
11431;SDS011;5772;50.940;6.782;2023-08-01T10:16:10;14.75;;;14.05;;
11431;SDS011;5772;50.940;6.782;2023-08-01T10:18:35;16.58;;;15.52;;
11431;SDS011;5772;50.940;6.782;2023-08-01T10:21:01;16.60;;;15.80;;
11431;SDS011;5772;50.940;6.782;2023-08-01T10:23:27;14.85;;;14.15;;
11431;SDS011;5772;50.940;6.782;2023-08-01T10:25:54;16.65;;;15.85;;
11431;SDS011;5772;50.940;6.782;2023-08-01T10:28:21;28.75;;;27.48;;
11431;SDS011;5772;50.940;6.782;2023-08-01T10:31:05;17.00;;;16.23;;
11431;SDS011;5772;50.940;6.782;2023-08-01T10:33:32;18.90;;;18.00;;
11431;SDS011;5772;50.940;6.782;2023-08-01T10:35:58;22.88;;;21.67;;
11431;SDS011;5772;50.940;6.782;2023-08-01T10:38:23;22.25;;;21.25;;
11431;SDS011;5772;50.940;6.782;2023-08-01T10:40:48;19.30;;;18.38;;
11431;SDS011;5772;50.940;6.782;2023-08-01T10:43:21;14.57;;;13.68;;
11431;SDS011;5772;50.940;6.782;2023-08-01T10:45:47;14.48;;;13.73;;
11431;SDS011;5772;50.940;6.782;2023-08-01T10:48:12;13.07;;;12.30;;
11431;SDS011;5772;50.940;6.782;2023-08-01T10:50:38;14.57;;;13.68;;
11431;SDS011;5772;50.940;6.782;2023-08-01T10:53:04;17.05;;;16.10;;
11431;SDS011;5772;50.940;6.782;2023-08-01T10:55:38;19.15;;;18.15;;
11431;SDS011;5772;50.940;6.782;2023-08-01T10:58:07;20.77;;;19.95;;
11431;SDS011;5772;50.940;6.782;2023-08-01T11:00:34;20.75;;;19.85;;
11431;SDS011;5772;50.940;6.782;2023-08-01T11:02:59;22.35;;;21.33;;
11431;SDS011;5772;50.940;6.782;2023-08-01T11:05:25;21.95;;;20.88;;
11431;SDS011;5772;50.940;6.782;2023-08-01T11:07:53;20.20;;;19.20;;
11431;SDS011;5772;50.940;6.782;2023-08-01T11:10:18;18.50;;;17.45;;
11431;SDS011;5772;50.940;6.782;2023-08-01T11:12:44;23.90;;;22.73;;
11431;SDS011;5772;50.940;6.782;2023-08-01T11:15:10;17.23;;;16.45;;
11431;SDS011;5772;50.940;6.782;2023-08-01T11:17:37;23.27;;;22.25;;
11431;SDS011;5772;50.940;6.782;2023-08-01T11:20:04;16.13;;;15.20;;
11431;SDS011;5772;50.940;6.782;2023-08-01T11:22:30;19.60;;;18.80;;
11431;SDS011;5772;50.940;6.782;2023-08-01T11:24:56;17.73;;;16.92;;
11431;SDS011;5772;50.940;6.782;2023-08-01T11:27:21;21.48;;;20.58;;
11431;SDS011;5772;50.940;6.782;2023-08-01T11:29:46;22.17;;;21.08;;
11431;SDS011;5772;50.940;6.782;2023-08-01T11:32:12;16.80;;;16.08;;
11431;SDS011;5772;50.940;6.782;2023-08-01T11:34:40;23.30;;;22.17;;
11431;SDS011;5772;50.940;6.782;2023-08-01T11:37:06;23.25;;;22.15;;
11431;SDS011;5772;50.940;6.782;2023-08-01T11:39:31;24.40;;;23.35;;
11431;SDS011;5772;50.940;6.782;2023-08-01T11:41:57;24.88;;;23.77;;
11431;SDS011;5772;50.940;6.782;2023-08-01T11:44:23;21.00;;;20.08;;
11431;SDS011;5772;50.940;6.782;2023-08-01T11:46:48;16.65;;;15.95;;
11431;SDS011;5772;50.940;6.782;2023-08-01T11:49:14;15.18;;;14.40;;
11431;SDS011;5772;50.940;6.782;2023-08-01T11:51:41;14.10;;;13.50;;
11431;SDS011;5772;50.940;6.782;2023-08-01T11:54:07;14.45;;;13.75;;
11431;SDS011;5772;50.940;6.782;2023-08-01T11:56:33;19.77;;;18.88;;
11431;SDS011;5772;50.940;6.782;2023-08-01T11:58:58;23.48;;;22.48;;
11431;SDS011;5772;50.940;6.782;2023-08-01T12:01:24;15.52;;;14.88;;
11431;SDS011;5772;50.940;6.782;2023-08-01T12:03:50;21.05;;;20.17;;
11431;SDS011;5772;50.940;6.782;2023-08-01T12:06:16;15.90;;;15.02;;
11431;SDS011;5772;50.940;6.782;2023-08-01T12:08:45;14.10;;;13.38;;
11431;SDS011;5772;50.940;6.782;2023-08-01T12:11:17;18.98;;;18.17;;
11431;SDS011;5772;50.940;6.782;2023-08-01T12:13:46;14.35;;;13.65;;
11431;SDS011;5772;50.940;6.782;2023-08-01T12:16:11;16.40;;;15.65;;
11431;SDS011;5772;50.940;6.782;2023-08-01T12:18:38;12.55;;;12.05;;
11431;SDS011;5772;50.940;6.782;2023-08-01T12:21:04;20.67;;;19.65;;
11431;SDS011;5772;50.940;6.782;2023-08-01T12:23:29;20.33;;;19.42;;
11431;SDS011;5772;50.940;6.782;2023-08-01T12:25:56;17.73;;;16.90;;
11431;SDS011;5772;50.940;6.782;2023-08-01T12:28:21;23.85;;;22.55;;
11431;SDS011;5772;50.940;6.782;2023-08-01T12:30:46;19.27;;;18.48;;
11431;SDS011;5772;50.940;6.782;2023-08-01T12:33:12;18.40;;;17.48;;
11431;SDS011;5772;50.940;6.782;2023-08-01T12:35:38;14.18;;;13.27;;
11431;SDS011;5772;50.940;6.782;2023-08-01T12:38:04;14.77;;;14.07;;
11431;SDS011;5772;50.940;6.782;2023-08-01T12:40:30;15.23;;;14.27;;
11431;SDS011;5772;50.940;6.782;2023-08-01T12:42:56;15.65;;;14.95;;
11431;SDS011;5772;50.940;6.782;2023-08-01T12:45:22;22.10;;;21.20;;
11431;SDS011;5772;50.940;6.782;2023-08-01T12:47:48;29.35;;;28.08;;
11431;SDS011;5772;50.940;6.782;2023-08-01T12:50:14;16.90;;;16.10;;
11431;SDS011;5772;50.940;6.782;2023-08-01T12:52:39;23.05;;;21.98;;
11431;SDS011;5772;50.940;6.782;2023-08-01T12:55:05;20.15;;;19.02;;
11431;SDS011;5772;50.940;6.782;2023-08-01T12:57:30;18.30;;;17.42;;
11431;SDS011;5772;50.940;6.782;2023-08-01T12:59:57;30.23;;;28.75;;
11431;SDS011;5772;50.940;6.782;2023-08-01T13:02:22;29.77;;;28.58;;
11431;SDS011;5772;50.940;6.782;2023-08-01T13:04:47;29.08;;;27.88;;
11431;SDS011;5772;50.940;6.782;2023-08-01T13:07:13;26.40;;;25.30;;
11431;SDS011;5772;50.940;6.782;2023-08-01T13:09:38;17.27;;;16.58;;
11431;SDS011;5772;50.940;6.782;2023-08-01T13:12:04;13.30;;;12.70;;
11431;SDS011;5772;50.940;6.782;2023-08-01T13:14:31;13.25;;;12.65;;
11431;SDS011;5772;50.940;6.782;2023-08-01T13:16:58;12.93;;;12.32;;
11431;SDS011;5772;50.940;6.782;2023-08-01T13:19:23;13.63;;;13.02;;
11431;SDS011;5772;50.940;6.782;2023-08-01T13:21:49;15.27;;;14.57;;
11431;SDS011;5772;50.940;6.782;2023-08-01T13:24:14;14.85;;;13.95;;
11431;SDS011;5772;50.940;6.782;2023-08-01T13:26:39;16.05;;;15.35;;
11431;SDS011;5772;50.940;6.782;2023-08-01T13:29:05;15.88;;;15.07;;
11431;SDS011;5772;50.940;6.782;2023-08-01T13:31:30;15.70;;;14.73;;
11431;SDS011;5772;50.940;6.782;2023-08-01T13:33:57;16.00;;;15.30;;
11431;SDS011;5772;50.940;6.782;2023-08-01T13:36:23;16.85;;;16.05;;
11431;SDS011;5772;50.940;6.782;2023-08-01T13:38:48;16.85;;;15.95;;
11431;SDS011;5772;50.940;6.782;2023-08-01T13:41:14;14.07;;;13.48;;
11431;SDS011;5772;50.940;6.782;2023-08-01T13:43:39;15.05;;;14.25;;
11431;SDS011;5772;50.940;6.782;2023-08-01T13:46:09;15.77;;;15.00;;
11431;SDS011;5772;50.940;6.782;2023-08-01T13:48:36;14.18;;;13.38;;
11431;SDS011;5772;50.940;6.782;2023-08-01T13:51:03;15.55;;;14.65;;
11431;SDS011;5772;50.940;6.782;2023-08-01T13:53:28;19.85;;;19.00;;
11431;SDS011;5772;50.940;6.782;2023-08-01T13:55:54;16.95;;;16.25;;
11431;SDS011;5772;50.940;6.782;2023-08-01T13:58:19;18.08;;;17.17;;
11431;SDS011;5772;50.940;6.782;2023-08-01T14:00:44;18.30;;;17.50;;
11431;SDS011;5772;50.940;6.782;2023-08-01T14:03:10;17.20;;;16.40;;
11431;SDS011;5772;50.940;6.782;2023-08-01T14:05:35;15.45;;;14.52;;
11431;SDS011;5772;50.940;6.782;2023-08-01T14:08:02;16.95;;;16.25;;
11431;SDS011;5772;50.940;6.782;2023-08-01T14:10:27;16.45;;;15.52;;
11431;SDS011;5772;50.940;6.782;2023-08-01T14:12:53;20.17;;;19.23;;
11431;SDS011;5772;50.940;6.782;2023-08-01T14:15:18;24.92;;;23.90;;
11431;SDS011;5772;50.940;6.782;2023-08-01T14:17:44;20.50;;;19.60;;
11431;SDS011;5772;50.940;6.782;2023-08-01T14:20:10;25.50;;;24.20;;
11431;SDS011;5772;50.940;6.782;2023-08-01T14:22:36;18.30;;;17.50;;
11431;SDS011;5772;50.940;6.782;2023-08-01T14:25:03;27.57;;;26.27;;